Weather Underground History page Text

Daily Summary for February 23, 2018 Units:  English    Metric   Both
« Previous Day
Next Day »
Daily Weekly Monthly Yearly Custom
  Current: High: Low: Average:
Temperature: 61.7 °F TemperatureF °F 58.3 °F 60.1 °F
Dew Point: 60.3 °F DewpointF °F 57.7 °F 58.4 °F
Humidity: 95 % Humidity % 91 % 93 %
Wind Speed: 1.2 mph WindSpeedMPH mph 0.0 mph 1.5 mph
Wind Gust: 1.2 mph WindSpeedGustMPH mph - -
Wind:WSW - - SSE
Pressure: 30.29 in PressureIn in 30.26 in -
Precipitation: 0.00 in      
Historical Graphs
 
 
Tabular Data for February 23, 2018
Time Temperature Dew Point Pressure Wind Wind Speed Wind Gust Humidity Rainfall Rate (Hourly)
TemperatureF °F DewpointF °F PressureIn in Calm     Humidity % HourlyPrecipIn in
00:02 58.6 °F 58.0 °F 30.28 in ESE 1.2 mph 1.2 mph 98 % 0.00 in
00:07 58.6 °F 58.0 °F 30.28 in ESE 1.2 mph   98 % 0.00 in
00:12 58.5 °F 57.9 °F 30.28 in ESE 1.2 mph 1.2 mph 98 % 0.00 in
00:17 58.4 °F 57.8 °F 30.28 in ESE 1.2 mph 1.2 mph 98 % 0.00 in
00:22 58.4 °F 57.8 °F 30.28 in Calm     98 % 0.00 in
00:27 58.5 °F 57.9 °F 30.28 in Calm     98 % 0.00 in
00:32 58.4 °F 57.8 °F 30.28 in Calm     98 % 0.00 in
00:37 58.5 °F 57.9 °F 30.28 in Calm     98 % 0.00 in
00:42 58.4 °F 57.8 °F 30.27 in Calm     98 % 0.00 in
00:47 58.5 °F 57.9 °F 30.27 in ESE 2.3 mph 2.3 mph 98 % 0.00 in
00:52 58.5 °F 57.9 °F 30.27 in ESE 1.2 mph 1.2 mph 98 % 0.00 in
00:57 58.5 °F 57.9 °F 30.28 in ESE 1.2 mph 1.2 mph 98 % 0.00 in
01:02 58.5 °F 57.9 °F 30.27 in ESE 2.3 mph 2.3 mph 98 % 0.00 in
01:07 58.4 °F 57.8 °F 30.27 in ESE 1.2 mph 1.2 mph 98 % 0.00 in
01:12 58.3 °F 57.7 °F 30.28 in Calm     98 % 0.00 in
01:17 58.3 °F 57.7 °F 30.28 in Calm     98 % 0.00 in
01:22 58.3 °F 57.7 °F 30.28 in ESE 2.3 mph 2.3 mph 98 % 0.00 in
01:27 59.1 °F 58.5 °F 30.28 in SE 2.3 mph 2.3 mph 98 % 0.00 in
01:32 59.6 °F 59.0 °F 30.28 in SE 2.3 mph 2.3 mph 98 % 0.00 in
01:37 60.2 °F 59.6 °F 30.27 in SE 2.3 mph 2.3 mph 98 % 0.00 in
01:42 60.2 °F 59.3 °F 30.27 in SE 2.3 mph 2.3 mph 97 % 0.00 in
01:47 60.4 °F 59.3 °F 30.27 in SE 2.3 mph 2.3 mph 96 % 0.00 in
01:52 60.2 °F 58.8 °F 30.27 in SE 2.3 mph 2.3 mph 95 % 0.00 in
01:57 59.8 °F 58.1 °F 30.27 in SE 2.3 mph 2.3 mph 94 % 0.00 in
02:02 59.3 °F 57.9 °F 30.27 in SE 2.3 mph 2.3 mph 95 % 0.00 in
02:07 59.6 °F 58.2 °F 30.27 in SE 2.3 mph 2.3 mph 95 % 0.00 in
02:12 59.8 °F 58.1 °F 30.27 in SE 2.3 mph 2.3 mph 94 % 0.00 in
02:17 59.8 °F 58.1 °F 30.26 in SE 2.3 mph 2.3 mph 94 % 0.00 in
02:22 60.3 °F 58.6 °F 30.26 in SE 2.3 mph 2.3 mph 94 % 0.00 in
02:27 61.2 °F 59.2 °F 30.26 in SSE 3.5 mph 3.5 mph 93 % 0.00 in
02:32 61.6 °F 59.3 °F 30.26 in SE 3.5 mph 3.5 mph 92 % 0.00 in
02:37 61.6 °F 58.9 °F 30.26 in SE 2.3 mph 2.3 mph 91 % 0.00 in
02:42 61.6 °F 58.9 °F 30.26 in SE 2.3 mph 2.3 mph 91 % 0.00 in
02:47 61.7 °F 59.0 °F 30.26 in SE 2.3 mph 2.3 mph 91 % 0.00 in
02:52 61.8 °F 59.1 °F 30.26 in SE 2.3 mph 2.3 mph 91 % 0.00 in
02:57 61.8 °F 59.1 °F 30.26 in SE 2.0 mph 2.0 mph 91 % 0.00 in
03:02 61.8 °F 59.1 °F 30.26 in SE 2.3 mph 2.3 mph 91 % 0.00 in
03:07 61.8 °F 59.1 °F 30.26 in SE 2.3 mph 2.3 mph 91 % 0.00 in
03:12 62.0 °F 59.3 °F 30.26 in SE 2.3 mph 2.3 mph 91 % 0.00 in
03:17 61.8 °F 59.1 °F 30.26 in SSE 2.3 mph 2.3 mph 91 % 0.00 in
03:22 61.7 °F 59.4 °F 30.26 in SSE 2.3 mph 2.3 mph 92 % 0.00 in
03:27 62.0 °F 59.6 °F 30.26 in SSE 3.5 mph 3.5 mph 92 % 0.00 in
03:32 62.2 °F 59.8 °F 30.26 in SSE 1.2 mph 1.2 mph 92 % 0.00 in
03:35 62.3 °F 59.9 °F 30.27 in SSE 3.5 mph 3.5 mph 92 % 0.00 in
03:40 62.3 °F 59.6 °F 30.26 in South 1.2 mph 1.2 mph 91 % 0.00 in
03:45 62.3 °F 59.9 °F 30.26 in Calm     92 % 0.00 in
03:50 62.3 °F 59.9 °F 30.26 in South 1.2 mph   92 % 0.00 in
03:55 62.3 °F 59.6 °F 30.26 in South 1.2 mph 1.2 mph 91 % 0.00 in
04:00 62.2 °F 59.8 °F 30.26 in Calm     92 % 0.00 in
04:05 62.1 °F 59.7 °F 30.26 in Calm     92 % 0.00 in
04:10 62.2 °F 59.8 °F 30.26 in Calm     92 % 0.00 in
04:15 62.7 °F 60.3 °F 30.27 in Calm     92 % 0.00 in
04:20 62.6 °F 59.9 °F 30.27 in Calm     91 % 0.00 in
04:25 61.6 °F 59.3 °F 30.27 in Calm     92 % 0.00 in
04:30 61.2 °F 59.2 °F 30.27 in Calm     93 % 0.00 in
04:35 61.6 °F 59.9 °F 30.28 in South 1.2 mph   94 % 0.00 in
04:40 62.2 °F 59.8 °F 30.28 in Calm     92 % 0.00 in
04:45 62.3 °F 59.9 °F 30.28 in South 1.2 mph 1.2 mph 92 % 0.00 in
04:50 62.4 °F 60.0 °F 30.28 in SSE 3.5 mph 3.5 mph 92 % 0.00 in
04:55 62.6 °F 60.2 °F 30.28 in SSE 2.3 mph 2.3 mph 92 % 0.00 in
05:00 62.9 °F 60.5 °F 30.28 in SSW 3.5 mph 3.5 mph 92 % 0.00 in
05:05 62.9 °F 60.5 °F 30.28 in South 2.3 mph 2.3 mph 92 % 0.00 in
05:10 63.1 °F 60.7 °F 30.28 in SW 2.3 mph 2.3 mph 92 % 0.00 in
05:15 63.1 °F 60.7 °F 30.29 in SW 1.2 mph 1.2 mph 92 % 0.00 in
05:20 63.1 °F 60.7 °F 30.29 in SSW 2.3 mph 2.3 mph 92 % 0.00 in
05:25 63.0 °F 60.6 °F 30.28 in SSW 2.3 mph 2.3 mph 92 % 0.00 in
05:30 62.9 °F 60.5 °F 30.28 in South 3.5 mph 3.5 mph 92 % 0.00 in
05:40 62.5 °F 59.8 °F 30.30 in WSW 2.3 mph 2.3 mph 91 % 0.00 in
05:45 61.4 °F 59.4 °F 30.29 in Calm     93 % 0.00 in
05:50 61.7 °F 60.0 °F 30.29 in Calm     94 % 0.00 in
05:55 62.0 °F 60.3 °F 30.29 in Calm     94 % 0.00 in
06:00 62.0 °F 60.3 °F 30.29 in Calm     94 % 0.00 in
06:05 61.9 °F 60.2 °F 30.29 in WSW 1.2 mph 1.2 mph 94 % 0.00 in
06:10 61.3 °F 59.3 °F 30.29 in Calm     93 % 0.00 in
06:15 60.8 °F 59.1 °F 30.29 in Calm     94 % 0.00 in
06:20 61.7 °F 60.3 °F 30.29 in WSW 1.2 mph 1.2 mph 95 % 0.00 in
Murfreesboro Weather Live
Compliments of Weather Underground - 2.75 mb

Script developed by  Jim McMurry - jmcmurry@mwt.net Adapted for the template by  Wim van der Kuil - Leuven-Template.eu